createdAt,value
2018-02-20T00:01:36.299Z,48.27
2018-02-20T00:04:02.268Z,49.17
2018-02-20T00:06:28.269Z,54.43
2018-02-20T00:08:54.230Z,53.20
2018-02-20T00:11:20.967Z,47.53
2018-02-20T00:13:47.669Z,41.53
2018-02-20T00:16:13.697Z,51.33
2018-02-20T00:18:39.709Z,47.77
2018-02-20T00:21:05.722Z,48.50
2018-02-20T00:23:31.697Z,58.53
2018-02-20T00:25:57.666Z,50.57
2018-02-20T00:28:23.663Z,47.90
2018-02-20T00:30:49.647Z,45.63
2018-02-20T00:33:15.637Z,51.63
2018-02-20T00:35:41.608Z,57.90
2018-02-20T00:38:07.611Z,45.97
2018-02-20T00:40:33.565Z,44.50
2018-02-20T00:42:59.593Z,49.57
2018-02-20T00:45:25.566Z,45.77
2018-02-20T00:47:51.534Z,52.60
2018-02-20T00:50:18.269Z,44.50
2018-02-20T00:52:44.966Z,47.13
2018-02-20T00:55:10.994Z,53.00
2018-02-20T00:57:36.998Z,54.83
2018-02-20T01:00:03.694Z,55.03
2018-02-20T01:02:29.699Z,55.10
2018-02-20T01:04:56.464Z,50.57
2018-02-20T01:07:23.161Z,42.40
2018-02-20T01:09:49.163Z,56.77
2018-02-20T01:12:15.122Z,55.70
2018-02-20T01:14:41.171Z,47.53
2018-02-20T01:17:07.134Z,55.37
2018-02-20T01:19:33.865Z,53.03
2018-02-20T01:21:59.857Z,48.33
2018-02-20T01:24:26.565Z,52.30
2018-02-20T01:26:52.529Z,50.83
2018-02-20T01:29:19.262Z,50.40
2018-02-20T01:31:45.261Z,53.83
2018-02-20T01:34:11.295Z,48.17
2018-02-20T01:36:37.261Z,50.00
2018-02-20T01:39:03.254Z,52.07
2018-02-20T01:41:29.214Z,49.00
2018-02-20T01:43:55.201Z,48.23
2018-02-20T01:46:21.929Z,51.23
2018-02-20T01:48:47.903Z,44.07
2018-02-20T01:51:14.645Z,51.57
2018-02-20T01:53:41.350Z,50.07
2018-02-20T01:56:07.362Z,49.37
2018-02-20T01:58:33.354Z,57.40
2018-02-20T02:00:59.305Z,50.27
2018-02-20T02:03:26.049Z,47.57
2018-02-20T02:05:52.788Z,51.83
2018-02-20T02:08:18.776Z,58.60
2018-02-20T02:10:44.781Z,55.67
2018-02-20T02:13:11.510Z,53.07
2018-02-20T02:15:37.505Z,47.30
2018-02-20T02:18:03.462Z,47.17
2018-02-20T02:20:29.466Z,48.03
2018-02-20T02:22:55.474Z,54.13
2018-02-20T02:25:22.205Z,50.53
2018-02-20T02:27:48.170Z,50.13
2018-02-20T02:30:14.224Z,50.73
2018-02-20T02:32:40.217Z,53.53
2018-02-20T02:35:06.169Z,56.07
2018-02-20T02:37:32.157Z,54.33
2018-02-20T02:39:58.139Z,58.37
2018-02-20T02:42:24.137Z,51.17
2018-02-20T02:44:50.093Z,61.83
2018-02-20T02:47:16.094Z,46.37
2018-02-20T02:49:42.097Z,54.60
2018-02-20T02:52:08.853Z,49.83
2018-02-20T02:54:35.570Z,51.33
2018-02-20T02:57:01.574Z,58.43
2018-02-20T02:59:27.530Z,57.27
2018-02-20T03:01:53.506Z,52.80
2018-02-20T03:04:20.254Z,52.87
2018-02-20T03:06:48.378Z,50.10
2018-02-20T03:09:14.341Z,57.90
2018-02-20T03:11:40.338Z,53.57
2018-02-20T03:14:06.333Z,48.30
2018-02-20T03:16:32.293Z,53.03
2018-02-20T03:18:59.037Z,52.97
2018-02-20T03:21:24.999Z,54.70
2018-02-20T03:23:50.998Z,53.60
2018-02-20T03:26:16.990Z,47.43
2018-02-20T03:28:42.945Z,52.77
2018-02-20T03:31:08.962Z,52.57
2018-02-20T03:33:34.976Z,48.77
2018-02-20T03:36:00.944Z,52.53
2018-02-20T03:38:26.909Z,48.67
2018-02-20T03:40:52.901Z,52.07
2018-02-20T03:43:18.866Z,52.53
2018-02-20T03:45:44.825Z,49.37
2018-02-20T03:48:10.842Z,51.53
2018-02-20T03:50:36.801Z,53.40
2018-02-20T03:53:03.534Z,49.90
2018-02-20T03:55:29.502Z,43.13
2018-02-20T03:57:56.237Z,52.90
2018-02-20T04:00:22.209Z,63.40
2018-02-20T04:02:48.170Z,53.97
2018-02-20T04:05:14.166Z,49.53
2018-02-20T04:07:40.909Z,54.43
2018-02-20T04:10:07.662Z,64.73
2018-02-20T04:12:34.395Z,59.27
2018-02-20T04:15:00.373Z,60.80
2018-02-20T04:17:26.382Z,66.67
2018-02-20T04:19:52.345Z,57.57
2018-02-20T04:22:18.305Z,64.40
2018-02-20T04:24:44.298Z,53.70
2018-02-20T04:27:11.013Z,58.73
2018-02-20T04:29:37.019Z,53.83
2018-02-20T04:32:02.977Z,50.67
2018-02-20T04:34:28.967Z,57.33
2018-02-20T04:36:55.665Z,54.33
2018-02-20T04:39:21.649Z,58.63
2018-02-20T04:41:48.381Z,62.33
2018-02-20T04:44:14.334Z,57.60
2018-02-20T04:46:41.106Z,62.33
2018-02-20T04:49:07.065Z,57.37
2018-02-20T04:51:33.022Z,59.10
2018-02-20T04:53:59.015Z,62.23
2018-02-20T04:56:24.969Z,68.20
2018-02-20T04:58:50.949Z,79.77
2018-02-20T05:01:16.901Z,67.03
2018-02-20T05:03:43.629Z,62.20
2018-02-20T05:06:09.601Z,79.07
2018-02-20T05:08:36.301Z,62.77
2018-02-20T05:11:02.319Z,72.93
2018-02-20T05:13:28.285Z,62.50
2018-02-20T05:15:54.274Z,54.83
2018-02-20T05:18:20.221Z,66.37
2018-02-20T05:20:46.212Z,60.23
2018-02-20T05:23:12.165Z,52.37
2018-02-20T05:25:38.880Z,52.77
2018-02-20T05:28:04.873Z,50.33
2018-02-20T05:30:30.824Z,59.00
2018-02-20T05:32:56.805Z,71.03
2018-02-20T05:35:22.763Z,61.33
2018-02-20T05:37:49.488Z,65.83
2018-02-20T05:40:16.208Z,59.30
2018-02-20T05:42:42.196Z,64.70
2018-02-20T05:45:08.949Z,65.57
2018-02-20T05:47:35.660Z,54.53
2018-02-20T05:50:01.637Z,57.83
2018-02-20T05:52:28.369Z,63.13
2018-02-20T05:54:55.136Z,64.40
2018-02-20T05:57:21.095Z,58.27
2018-02-20T05:59:47.818Z,58.60
2018-02-20T06:02:13.766Z,62.50
2018-02-20T06:04:40.533Z,68.30
2018-02-20T06:07:07.305Z,62.27
2018-02-20T06:09:33.259Z,58.03
2018-02-20T06:11:59.253Z,68.97
2018-02-20T06:14:25.956Z,53.93
2018-02-20T06:16:51.993Z,56.60
2018-02-20T06:19:17.937Z,58.97
2018-02-20T06:21:43.906Z,51.13
2018-02-20T06:24:09.906Z,58.90
2018-02-20T06:26:35.880Z,51.30
2018-02-20T06:29:02.573Z,53.30
2018-02-20T06:31:28.544Z,69.77
2018-02-20T06:33:54.493Z,144.10
2018-02-20T06:36:20.481Z,85.53
2018-02-20T06:38:46.461Z,71.30
2018-02-20T06:41:12.429Z,75.93
2018-02-20T06:43:38.452Z,76.23
2018-02-20T06:46:05.141Z,68.83
2018-02-20T06:48:31.133Z,68.43
2018-02-20T06:50:57.088Z,56.97
2018-02-20T06:53:23.785Z,67.47
2018-02-20T06:55:49.756Z,63.80
2018-02-20T06:58:15.740Z,67.20
2018-02-20T07:00:41.729Z,64.80
2018-02-20T07:03:07.677Z,59.53
2018-02-20T07:05:34.406Z,61.27
2018-02-20T07:08:00.407Z,58.70
2018-02-20T07:10:26.389Z,77.60
2018-02-20T07:12:53.136Z,50.87
2018-02-20T07:15:19.094Z,54.03
2018-02-20T07:17:45.818Z,59.13
2018-02-20T07:20:11.764Z,64.43
2018-02-20T07:22:37.788Z,57.87
2018-02-20T07:25:03.761Z,57.27
2018-02-20T07:27:29.737Z,57.00
2018-02-20T07:29:55.757Z,65.10
2018-02-20T07:32:21.766Z,62.80
2018-02-20T07:34:48.470Z,55.10
2018-02-20T07:37:14.445Z,64.93
2018-02-20T07:39:41.137Z,60.80
2018-02-20T07:42:07.107Z,54.47
2018-02-20T07:44:33.077Z,59.00
2018-02-20T07:46:59.061Z,52.87
2018-02-20T07:49:25.063Z,49.30
2018-02-20T07:51:51.071Z,50.90
2018-02-20T07:54:17.771Z,49.00
2018-02-20T07:56:43.753Z,49.67
2018-02-20T07:59:09.700Z,51.20
2018-02-20T08:01:36.445Z,54.47
2018-02-20T08:04:03.144Z,45.70
2018-02-20T08:06:29.139Z,47.67
2018-02-20T08:08:55.891Z,47.60
2018-02-20T08:11:22.605Z,55.83
2018-02-20T08:13:48.590Z,49.40
2018-02-20T08:16:14.621Z,56.60
2018-02-20T08:18:41.351Z,59.87
2018-02-20T08:21:08.118Z,48.63
2018-02-20T08:23:34.808Z,49.70
2018-02-20T08:26:00.838Z,48.60
2018-02-20T08:28:26.794Z,55.10
2018-02-20T08:30:52.769Z,52.70
2018-02-20T08:33:18.712Z,50.83
2018-02-20T08:35:44.711Z,47.13
2018-02-20T08:38:10.653Z,52.33
2018-02-20T08:40:36.641Z,50.37
2018-02-20T08:43:02.598Z,47.60
2018-02-20T08:45:28.596Z,52.43
2018-02-20T08:47:55.293Z,49.00
2018-02-20T08:50:21.232Z,53.00
2018-02-20T08:52:47.208Z,50.60
2018-02-20T08:55:13.200Z,49.47
2018-02-20T08:57:39.193Z,48.73
2018-02-20T09:00:05.926Z,48.97
2018-02-20T09:02:31.901Z,51.70
2018-02-20T09:04:57.849Z,46.27
2018-02-20T09:07:23.837Z,49.60
2018-02-20T09:09:49.784Z,52.87
2018-02-20T09:12:16.522Z,61.57
2018-02-20T09:14:42.887Z,49.50
2018-02-20T09:17:09.583Z,48.43
2018-02-20T09:19:35.557Z,45.43
2018-02-20T09:22:01.519Z,50.33
2018-02-20T09:24:28.245Z,59.87
2018-02-20T09:26:54.193Z,47.07
2018-02-20T09:29:20.909Z,54.70
2018-02-20T09:31:46.897Z,48.37
2018-02-20T09:34:13.637Z,45.53
2018-02-20T09:36:40.366Z,43.20
2018-02-20T09:39:07.829Z,42.97
2018-02-20T09:41:33.809Z,41.50
2018-02-20T09:44:00.524Z,46.37
2018-02-20T09:46:26.505Z,40.00
2018-02-20T09:48:52.470Z,40.00
2018-02-20T09:51:18.482Z,36.83
2018-02-20T09:53:44.461Z,37.63
2018-02-20T09:56:10.446Z,36.07
2018-02-20T09:58:36.447Z,38.33
2018-02-20T10:01:03.882Z,35.77
2018-02-20T10:03:29.836Z,33.07
2018-02-20T10:05:55.816Z,37.67
2018-02-20T10:08:22.525Z,35.20
2018-02-20T10:10:48.517Z,34.33
2018-02-20T10:13:14.466Z,37.27
2018-02-20T10:15:40.461Z,33.63
2018-02-20T10:18:06.459Z,31.03
2018-02-20T10:20:32.890Z,35.70
2018-02-20T10:22:58.874Z,35.07
2018-02-20T10:25:24.861Z,30.70
2018-02-20T10:27:50.854Z,27.67
2018-02-20T10:30:17.553Z,33.73
2018-02-20T10:32:43.527Z,32.80
2018-02-20T10:35:09.505Z,40.27
2018-02-20T10:37:35.508Z,34.87
2018-02-20T10:40:01.457Z,31.47
2018-02-20T10:42:28.153Z,32.53
2018-02-20T10:44:54.217Z,31.87
2018-02-20T10:47:20.197Z,35.83
2018-02-20T10:49:46.905Z,34.87
2018-02-20T10:52:12.903Z,36.23
2018-02-20T10:54:38.862Z,30.37
2018-02-20T10:57:04.809Z,33.17
2018-02-20T10:59:30.806Z,29.57
2018-02-20T11:01:56.780Z,27.87
2018-02-20T11:04:22.781Z,30.70
2018-02-20T11:06:48.729Z,29.87
2018-02-20T11:09:14.698Z,34.03
2018-02-20T11:11:41.417Z,28.50
2018-02-20T11:14:07.370Z,26.37
2018-02-20T11:16:33.380Z,28.10
2018-02-20T11:18:59.387Z,29.87
2018-02-20T11:21:26.101Z,25.70
2018-02-20T11:23:52.053Z,26.90
2018-02-20T11:26:19.515Z,33.13
2018-02-20T11:28:45.494Z,27.47
2018-02-20T11:31:11.440Z,28.90
2018-02-20T11:33:37.417Z,29.00
2018-02-20T11:36:03.393Z,28.67
2018-02-20T11:38:30.085Z,36.10
2018-02-20T11:40:56.069Z,27.73
2018-02-20T11:43:22.013Z,29.10
2018-02-20T11:45:48.741Z,26.13
2018-02-20T11:48:14.789Z,26.60
2018-02-20T11:50:40.745Z,26.10
2018-02-20T11:53:07.479Z,27.90
2018-02-20T11:55:33.424Z,26.53
2018-02-20T11:58:00.176Z,30.13
2018-02-20T12:00:26.122Z,30.13
2018-02-20T12:02:52.829Z,26.50
2018-02-20T12:05:18.816Z,31.37
2018-02-20T12:07:45.520Z,29.50
2018-02-20T12:10:11.535Z,27.97
2018-02-20T12:12:37.481Z,29.73
2018-02-20T12:15:03.471Z,24.10
2018-02-20T12:17:30.193Z,30.40
2018-02-20T12:19:56.150Z,29.43
2018-02-20T12:22:22.865Z,29.13
2018-02-20T12:24:48.845Z,27.00
2018-02-20T12:27:15.545Z,33.70
2018-02-20T12:29:41.537Z,34.93
2018-02-20T12:32:08.229Z,30.90
2018-02-20T12:34:34.193Z,33.53
2018-02-20T12:37:00.186Z,41.37
2018-02-20T12:39:26.191Z,38.87
2018-02-20T12:41:52.902Z,31.47
2018-02-20T12:44:18.861Z,38.80
2018-02-20T12:46:44.882Z,38.10
2018-02-20T12:49:10.867Z,35.60
2018-02-20T12:51:36.865Z,36.87
2018-02-20T12:54:02.815Z,33.70
2018-02-20T12:56:28.762Z,32.57
2018-02-20T12:58:55.489Z,37.80
2018-02-20T13:01:21.445Z,37.20
2018-02-20T13:03:48.212Z,42.37
2018-02-20T13:06:14.177Z,41.90
2018-02-20T13:08:40.174Z,42.03
2018-02-20T13:11:06.870Z,41.13
2018-02-20T13:13:32.817Z,40.73
2018-02-20T13:15:58.801Z,41.97
2018-02-20T13:18:25.525Z,37.27
2018-02-20T13:20:51.477Z,44.17
2018-02-20T13:23:18.228Z,39.77
2018-02-20T13:25:44.945Z,40.07
2018-02-20T13:28:10.942Z,35.83
2018-02-20T13:30:36.901Z,38.37
2018-02-20T13:33:02.887Z,39.30
2018-02-20T13:35:28.869Z,32.57
2018-02-20T13:37:54.814Z,37.97
2018-02-20T13:40:20.805Z,39.83
2018-02-20T13:42:47.549Z,43.27
2018-02-20T13:45:14.317Z,35.87
2018-02-20T13:47:41.049Z,39.90
2018-02-20T13:50:06.993Z,40.77
2018-02-20T13:52:33.728Z,39.43
2018-02-20T13:54:59.677Z,41.03
2018-02-20T13:57:25.674Z,43.70
2018-02-20T13:59:51.617Z,45.67
2018-02-20T14:02:17.566Z,44.80
2018-02-20T14:04:43.546Z,39.87
2018-02-20T14:07:09.847Z,45.77
2018-02-20T14:09:35.886Z,44.10
2018-02-20T14:12:01.834Z,46.37
2018-02-20T14:14:27.869Z,43.40
2018-02-20T14:16:53.812Z,48.03
2018-02-20T14:19:20.601Z,49.40
2018-02-20T14:21:46.585Z,54.00
2018-02-20T14:24:14.065Z,46.27
2018-02-20T14:26:40.005Z,46.53
2018-02-20T14:29:06.017Z,50.77
2018-02-20T14:31:32.015Z,45.80
2018-02-20T14:33:57.965Z,53.73
2018-02-20T14:36:23.957Z,54.97
2018-02-20T14:38:50.669Z,51.63
2018-02-20T14:41:16.657Z,51.40
2018-02-20T14:43:43.348Z,53.37
2018-02-20T14:46:09.321Z,56.30
2018-02-20T14:48:35.301Z,57.50
2018-02-20T14:51:01.293Z,57.43
2018-02-20T14:53:27.250Z,57.30
2018-02-20T14:55:53.972Z,61.73
2018-02-20T14:58:20.772Z,65.50
2018-02-20T15:00:46.725Z,65.07
2018-02-20T15:03:12.701Z,61.30
2018-02-20T15:05:38.682Z,62.20
2018-02-20T15:08:04.658Z,70.80
2018-02-20T15:10:30.650Z,65.30
2018-02-20T15:12:56.607Z,68.17
2018-02-20T15:15:22.598Z,66.00
2018-02-20T15:17:49.338Z,66.60
2018-02-20T15:20:15.373Z,67.67
2018-02-20T15:22:41.348Z,63.20
2018-02-20T15:25:07.301Z,67.90
2018-02-20T15:27:33.328Z,68.33
2018-02-20T15:29:59.278Z,71.87
2018-02-20T15:32:25.221Z,81.10
2018-02-20T15:34:51.216Z,69.77
2018-02-20T15:37:17.177Z,72.43
2018-02-20T15:39:43.179Z,65.77
2018-02-20T15:42:09.138Z,71.97
2018-02-20T15:44:35.086Z,70.67
2018-02-20T15:47:01.067Z,75.37
2018-02-20T15:49:27.799Z,83.80
2018-02-20T15:51:53.770Z,70.37
2018-02-20T15:54:20.499Z,70.07
2018-02-20T15:56:46.471Z,84.50
2018-02-20T15:59:12.467Z,73.30
2018-02-20T16:01:38.478Z,73.90
2018-02-20T16:04:04.433Z,78.07
2018-02-20T16:06:30.425Z,70.43
2018-02-20T16:08:56.382Z,77.87
2018-02-20T16:11:22.337Z,77.60
2018-02-20T16:13:49.077Z,90.40
2018-02-20T16:16:15.101Z,77.80
2018-02-20T16:18:41.076Z,76.43
2018-02-20T16:21:07.068Z,86.10
2018-02-20T16:23:33.046Z,65.20
2018-02-20T16:25:59.033Z,72.63
2018-02-20T16:28:25.014Z,65.90
2018-02-20T16:30:50.965Z,70.00
2018-02-20T16:33:17.738Z,84.40
2018-02-20T16:35:44.448Z,78.40
2018-02-20T16:38:10.418Z,74.70
2018-02-20T16:40:37.165Z,72.80
2018-02-20T16:43:03.868Z,64.47
2018-02-20T16:45:29.824Z,71.37
2018-02-20T16:47:55.809Z,66.67
2018-02-20T16:50:21.760Z,71.53
2018-02-20T16:52:47.781Z,70.13
2018-02-20T16:55:13.753Z,71.70
2018-02-20T16:57:39.772Z,72.03
2018-02-20T17:00:05.779Z,60.73
2018-02-20T17:02:32.489Z,74.63
2018-02-20T17:04:58.481Z,65.00
2018-02-20T17:07:24.473Z,76.50
2018-02-20T17:09:51.917Z,69.20
2018-02-20T17:12:17.894Z,76.93
2018-02-20T17:14:44.621Z,76.77
2018-02-20T17:17:10.633Z,76.17
2018-02-20T17:19:36.637Z,71.00
2018-02-20T17:22:02.634Z,69.07
2018-02-20T17:24:28.597Z,54.80
2018-02-20T17:26:55.286Z,56.23
2018-02-20T17:29:21.277Z,60.80
2018-02-20T17:31:48.007Z,57.87
2018-02-20T17:34:13.986Z,51.37
2018-02-20T17:36:40.704Z,52.30
2018-02-20T17:39:06.692Z,53.50
2018-02-20T17:41:32.673Z,54.43
2018-02-20T17:43:58.629Z,61.50
2018-02-20T17:46:25.361Z,62.00
2018-02-20T17:48:51.349Z,57.43
2018-02-20T17:51:17.305Z,52.90
2018-02-20T17:53:43.250Z,54.17
2018-02-20T17:56:09.269Z,50.50
2018-02-20T17:58:35.254Z,62.93
2018-02-20T18:01:01.200Z,58.23
2018-02-20T18:03:27.897Z,51.33
2018-02-20T18:05:53.878Z,51.93
2018-02-20T18:08:19.861Z,53.60
2018-02-20T18:10:45.876Z,54.10
2018-02-20T18:13:11.825Z,54.47
2018-02-20T18:15:37.805Z,44.67
2018-02-20T18:18:03.781Z,46.53
2018-02-20T18:20:30.499Z,44.77
2018-02-20T18:22:56.449Z,54.43
2018-02-20T18:25:23.185Z,51.97
2018-02-20T18:27:49.150Z,47.03
2018-02-20T18:30:15.913Z,57.77
2018-02-20T18:32:41.865Z,53.53
2018-02-20T18:35:07.813Z,52.10
2018-02-20T18:37:33.794Z,52.43
2018-02-20T18:39:59.745Z,50.33
2018-02-20T18:42:26.438Z,47.47
2018-02-20T18:44:52.416Z,48.03
2018-02-20T18:47:18.411Z,57.03
2018-02-20T18:49:44.357Z,43.30
2018-02-20T18:52:10.332Z,47.93
2018-02-20T18:54:37.025Z,55.57
2018-02-20T18:57:03.013Z,54.10
2018-02-20T18:59:29.004Z,56.67
2018-02-20T19:01:54.950Z,44.03
2018-02-20T19:04:20.905Z,52.57
2018-02-20T19:06:46.901Z,47.27
2018-02-20T19:09:12.856Z,54.20
2018-02-20T19:11:38.853Z,54.80
2018-02-20T19:14:04.867Z,59.27
2018-02-20T19:16:31.650Z,56.40
2018-02-20T19:18:57.610Z,50.77
2018-02-20T19:21:23.602Z,52.67
2018-02-20T19:23:50.285Z,47.07
2018-02-20T19:26:16.276Z,59.03
2018-02-20T19:28:42.222Z,53.83
2018-02-20T19:31:08.938Z,51.50
2018-02-20T19:33:34.947Z,53.07
2018-02-20T19:36:00.898Z,54.00
2018-02-20T19:38:26.849Z,56.17
2018-02-20T19:40:52.858Z,55.83
2018-02-20T19:43:18.810Z,57.20
2018-02-20T19:45:44.777Z,52.90
2018-02-20T19:48:10.766Z,54.20
2018-02-20T19:50:36.733Z,56.20
2018-02-20T19:53:02.723Z,51.83
2018-02-20T19:55:28.690Z,65.60
2018-02-20T19:57:54.638Z,47.67
2018-02-20T20:00:20.642Z,57.23
2018-02-20T20:02:46.636Z,60.20
2018-02-20T20:05:13.365Z,53.53
2018-02-20T20:07:39.337Z,58.57
2018-02-20T20:10:05.286Z,50.40
2018-02-20T20:12:31.273Z,60.33
2018-02-20T20:14:57.225Z,63.77
2018-02-20T20:17:23.904Z,78.83
2018-02-20T20:19:49.933Z,62.00
2018-02-20T20:22:15.915Z,64.23
2018-02-20T20:24:41.902Z,62.83
2018-02-20T20:27:07.881Z,63.73
2018-02-20T20:29:33.849Z,60.20
2018-02-20T20:32:00.565Z,54.97
2018-02-20T20:34:26.529Z,55.90
2018-02-20T20:36:52.473Z,59.93
2018-02-20T20:39:18.485Z,58.53
2018-02-20T20:41:44.481Z,59.63
2018-02-20T20:44:10.426Z,60.00
2018-02-20T20:46:36.401Z,65.00
2018-02-20T20:49:02.379Z,53.77
2018-02-20T20:51:28.354Z,57.13
2018-02-20T20:53:54.345Z,62.90
2018-02-20T20:56:20.294Z,60.83
2018-02-20T20:58:46.265Z,58.20
2018-02-20T21:01:12.237Z,52.00
2018-02-20T21:03:38.929Z,61.63
2018-02-20T21:06:04.909Z,57.40
2018-02-20T21:08:30.912Z,52.40
2018-02-20T21:10:56.845Z,63.73
2018-02-20T21:13:22.781Z,57.53
2018-02-20T21:15:48.775Z,57.97
2018-02-20T21:18:15.485Z,48.60
2018-02-20T21:20:41.435Z,61.60
2018-02-20T21:23:08.897Z,59.70
2018-02-20T21:25:35.629Z,56.33
2018-02-20T21:28:01.601Z,62.33
2018-02-20T21:30:27.586Z,51.50
2018-02-20T21:32:53.580Z,49.60
2018-02-20T21:35:19.550Z,59.23
2018-02-20T21:37:45.497Z,51.00
2018-02-20T21:40:11.477Z,61.97
2018-02-20T21:42:37.427Z,54.87
2018-02-20T21:45:04.187Z,55.70
2018-02-20T21:47:30.905Z,53.47
2018-02-20T21:49:56.845Z,53.27
2018-02-20T21:52:22.821Z,58.03
2018-02-20T21:54:48.785Z,47.83
2018-02-20T21:57:14.757Z,56.97
2018-02-20T21:59:40.730Z,58.80
2018-02-20T22:02:06.693Z,51.77
2018-02-20T22:04:32.710Z,51.07
2018-02-20T22:06:58.662Z,44.83
2018-02-20T22:09:24.666Z,51.73
2018-02-20T22:11:51.442Z,54.93
2018-02-20T22:14:18.206Z,52.97
2018-02-20T22:16:44.161Z,47.80
2018-02-20T22:19:10.133Z,60.30
2018-02-20T22:21:36.869Z,54.00
2018-02-20T22:24:02.830Z,46.37
2018-02-20T22:26:29.550Z,50.30
2018-02-20T22:28:55.525Z,63.03
2018-02-20T22:31:22.213Z,59.70
2018-02-20T22:33:48.205Z,52.80
2018-02-20T22:36:14.894Z,62.00
2018-02-20T22:38:40.878Z,55.30
2018-02-20T22:41:06.824Z,57.87
2018-02-20T22:43:33.554Z,54.50
2018-02-20T22:46:00.241Z,51.90
2018-02-20T22:48:26.929Z,50.27
2018-02-20T22:50:52.904Z,57.57
2018-02-20T22:53:18.921Z,51.70
2018-02-20T22:55:44.870Z,48.73
2018-02-20T22:58:10.892Z,63.20
2018-02-20T23:00:36.897Z,52.93
2018-02-20T23:03:02.850Z,48.53
2018-02-20T23:05:28.802Z,50.47
2018-02-20T23:07:54.781Z,60.37
2018-02-20T23:10:20.725Z,50.40
2018-02-20T23:12:46.701Z,54.50
2018-02-20T23:15:12.672Z,45.73
2018-02-20T23:17:39.374Z,54.30
2018-02-20T23:20:05.393Z,57.57
2018-02-20T23:22:31.373Z,58.63
2018-02-20T23:24:57.322Z,56.30
2018-02-20T23:27:24.074Z,51.20
2018-02-20T23:29:50.066Z,51.90
2018-02-20T23:32:16.041Z,54.43
2018-02-20T23:34:41.985Z,49.70
2018-02-20T23:37:08.737Z,47.40
2018-02-20T23:39:34.685Z,53.70
2018-02-20T23:42:01.382Z,46.67
2018-02-20T23:44:27.362Z,53.40
2018-02-20T23:46:54.049Z,61.23
2018-02-20T23:49:20.070Z,49.27
2018-02-20T23:51:46.002Z,50.40
2018-02-20T23:54:12.745Z,54.20
2018-02-20T23:56:39.433Z,50.33
2018-02-20T23:59:05.390Z,49.67
